Leon, Minnesota
Current Conditions -  °F | °C
As of 12:35 PM on Thursday 30 Oct 2014 (Local Time) from KFSE Reporting Station
Overcast Overcast  
Wind Chill: 25°   Ceiling: 1800
Heat Index: 36°   Visibility: 10mi
Dew Point: 30°   Wind: 18mph
Humidity: 81%   Direction: 340°NNW
Pressure: 30.24"   Gusts: NA
Location:  47.7926°N, 95.3062°W
Report Text: KFSE 301735Z AUTO 34016KT 10SM BKN018 OVC028 02/M01 A3024 RMK AO2
Loading
Personal Weather Stations






























Interactive Weather Map
Tropical Storm Tracking
New forecast layout! Learn more

10-Day Weather Forecast

Advertisements
Track Severe Weather on mobile